createdAt,value
2022-09-15T00:00:01.081Z,0
2022-09-15T00:01:07.474Z,0
2022-09-15T00:02:13.875Z,0
2022-09-15T00:03:20.268Z,0
2022-09-15T00:04:26.664Z,0
2022-09-15T00:05:33.045Z,0
2022-09-15T00:06:39.449Z,0
2022-09-15T00:07:45.832Z,0
2022-09-15T00:08:52.219Z,0
2022-09-15T00:09:58.612Z,0
2022-09-15T00:11:05.006Z,0
2022-09-15T00:12:11.409Z,0
2022-09-15T00:13:17.798Z,0
2022-09-15T00:14:24.239Z,0
2022-09-15T00:15:30.588Z,0
2022-09-15T00:16:36.988Z,0
2022-09-15T00:17:43.374Z,0
2022-09-15T00:18:49.791Z,0
2022-09-15T00:19:56.161Z,0
2022-09-15T00:21:02.560Z,0
2022-09-15T00:22:09.090Z,0
2022-09-15T00:23:15.603Z,0
2022-09-15T00:24:22.117Z,0
2022-09-15T00:25:28.638Z,0
2022-09-15T00:26:35.145Z,0
2022-09-15T00:27:41.699Z,0
2022-09-15T00:28:48.168Z,0
2022-09-15T00:29:54.680Z,0
2022-09-15T00:31:01.198Z,0
2022-09-15T00:32:07.706Z,0
2022-09-15T00:33:14.218Z,0
2022-09-15T00:34:20.736Z,0
2022-09-15T00:35:27.266Z,0
2022-09-15T00:37:16.596Z,0
2022-09-15T00:38:23.355Z,0
2022-09-15T00:39:30.114Z,0
2022-09-15T00:40:36.872Z,0
2022-09-15T00:41:43.613Z,0
2022-09-15T00:42:50.363Z,0
2022-09-15T00:43:57.119Z,0
2022-09-15T00:45:03.873Z,0
2022-09-15T00:46:10.634Z,0
2022-09-15T00:47:17.371Z,0
2022-09-15T00:48:24.129Z,0
2022-09-15T00:49:30.880Z,0
2022-09-15T00:50:37.637Z,0
2022-09-15T00:53:55.789Z,0
2022-09-15T00:55:34.528Z,0
2022-09-15T00:56:41.767Z,0
2022-09-15T00:57:48.991Z,0
2022-09-15T00:59:27.715Z,0
2022-09-15T01:01:06.483Z,0
2022-09-15T01:02:45.202Z,0
2022-09-15T01:04:23.934Z,0
2022-09-15T01:06:02.665Z,0
2022-09-15T01:07:41.406Z,0
2022-09-15T01:09:20.137Z,0
2022-09-15T01:10:58.871Z,0
2022-09-15T01:12:37.616Z,0
2022-09-15T01:14:17.368Z,0
2022-09-15T01:17:32.935Z,0
2022-09-15T01:18:39.331Z,0
2022-09-15T01:19:45.715Z,0
2022-09-15T01:20:52.116Z,0
2022-09-15T01:21:58.504Z,0
2022-09-15T01:23:04.920Z,0
2022-09-15T01:24:11.300Z,0
2022-09-15T01:25:17.685Z,0
2022-09-15T01:26:24.115Z,0
2022-09-15T01:27:30.485Z,0
2022-09-15T01:28:36.888Z,0
2022-09-15T01:29:43.280Z,0
2022-09-15T01:30:49.681Z,0
2022-09-15T01:31:56.075Z,0
2022-09-15T01:33:02.491Z,0
2022-09-15T01:34:08.901Z,0
2022-09-15T01:35:15.261Z,0
2022-09-15T01:36:21.654Z,0
2022-09-15T01:37:28.065Z,0
2022-09-15T01:38:34.450Z,0
2022-09-15T01:39:40.854Z,0
2022-09-15T01:40:47.247Z,0
2022-09-15T01:41:53.633Z,0
2022-09-15T01:43:00.050Z,0
2022-09-15T01:44:06.435Z,0
2022-09-15T01:45:12.966Z,0
2022-09-15T01:46:19.479Z,0
2022-09-15T01:47:25.993Z,0
2022-09-15T01:48:32.499Z,0
2022-09-15T01:49:39.013Z,0
2022-09-15T01:50:45.518Z,0
2022-09-15T01:51:52.028Z,0
2022-09-15T01:52:58.547Z,0
2022-09-15T01:54:05.109Z,0
2022-09-15T01:55:11.585Z,0
2022-09-15T01:56:18.097Z,0
2022-09-15T01:57:24.595Z,0
2022-09-15T01:58:31.119Z,0
2022-09-15T02:00:20.441Z,0
2022-09-15T02:01:27.202Z,0
2022-09-15T02:02:33.934Z,0
2022-09-15T02:03:40.690Z,0
2022-09-15T02:04:47.445Z,0
2022-09-15T02:05:54.188Z,0
2022-09-15T02:07:00.936Z,0
2022-09-15T02:08:07.694Z,0
2022-09-15T02:09:14.434Z,0
2022-09-15T02:10:21.198Z,0
2022-09-15T02:11:27.952Z,0
2022-09-15T02:12:34.688Z,0
2022-09-15T02:13:41.441Z,0
2022-09-15T02:16:59.591Z,0
2022-09-15T02:18:38.319Z,0
2022-09-15T02:19:45.552Z,0
2022-09-15T02:20:52.778Z,0
2022-09-15T02:22:31.500Z,0
2022-09-15T02:24:10.256Z,0
2022-09-15T02:25:48.958Z,0
2022-09-15T02:27:27.691Z,0
2022-09-15T02:29:06.425Z,0
2022-09-15T02:30:45.161Z,0
2022-09-15T02:32:23.890Z,0
2022-09-15T02:34:02.608Z,0
2022-09-15T02:35:41.418Z,0
2022-09-15T02:37:21.084Z,0
2022-09-15T02:40:36.617Z,0
2022-09-15T02:41:43.018Z,0
2022-09-15T02:42:49.399Z,0
2022-09-15T02:43:55.783Z,0
2022-09-15T02:45:02.182Z,0
2022-09-15T02:46:08.571Z,0
2022-09-15T02:47:14.973Z,0
2022-09-15T02:48:21.352Z,0
2022-09-15T02:49:27.776Z,0
2022-09-15T02:50:34.129Z,0
2022-09-15T02:51:40.526Z,0
2022-09-15T02:52:46.927Z,0
2022-09-15T02:53:53.322Z,0
2022-09-15T02:54:59.715Z,0
2022-09-15T02:56:06.117Z,0
2022-09-15T02:57:12.605Z,0
2022-09-15T02:58:18.902Z,0
2022-09-15T02:59:25.304Z,0
2022-09-15T03:00:31.699Z,0
2022-09-15T03:01:38.091Z,0
2022-09-15T03:02:44.487Z,0
2022-09-15T03:03:50.877Z,0
2022-09-15T03:04:57.264Z,0
2022-09-15T03:06:03.661Z,0
2022-09-15T03:07:10.043Z,0
2022-09-15T03:08:16.569Z,0
2022-09-15T03:09:23.096Z,0
2022-09-15T03:10:29.590Z,0
2022-09-15T03:11:36.109Z,0
2022-09-15T03:12:42.616Z,0
2022-09-15T03:13:49.133Z,0
2022-09-15T03:14:55.664Z,0
2022-09-15T03:16:02.167Z,0
2022-09-15T03:17:08.715Z,0
2022-09-15T03:18:15.211Z,0
2022-09-15T03:19:21.778Z,0
2022-09-15T03:20:28.262Z,0
2022-09-15T03:21:34.763Z,0
2022-09-15T03:23:24.107Z,0
2022-09-15T03:24:30.870Z,0
2022-09-15T03:25:37.617Z,0
2022-09-15T03:26:44.371Z,0
2022-09-15T03:27:51.127Z,0
2022-09-15T03:28:57.901Z,0
2022-09-15T03:30:04.649Z,0
2022-09-15T03:31:11.417Z,0
2022-09-15T03:32:18.157Z,0
2022-09-15T03:33:24.916Z,0
2022-09-15T03:34:31.653Z,0
2022-09-15T03:35:38.447Z,0
2022-09-15T03:36:45.180Z,0
2022-09-15T03:40:03.334Z,0
2022-09-15T03:41:42.065Z,0
2022-09-15T03:42:49.292Z,0
2022-09-15T03:43:56.521Z,0
2022-09-15T03:45:35.242Z,0
2022-09-15T03:47:13.989Z,0
2022-09-15T03:48:52.707Z,0
2022-09-15T03:50:31.440Z,0
2022-09-15T03:52:10.176Z,0
2022-09-15T03:53:48.903Z,0
2022-09-15T03:55:27.629Z,0
2022-09-15T03:57:06.415Z,0
2022-09-15T03:58:45.101Z,0
2022-09-15T04:00:24.950Z,0
2022-09-15T04:03:40.510Z,0
2022-09-15T04:04:47.013Z,0
2022-09-15T04:05:53.552Z,0
2022-09-15T04:07:00.098Z,0
2022-09-15T04:08:06.566Z,0
2022-09-15T04:09:13.067Z,0
2022-09-15T04:10:19.578Z,0
2022-09-15T04:11:26.164Z,0
2022-09-15T04:12:32.597Z,0
2022-09-15T04:13:39.110Z,0
2022-09-15T04:14:45.690Z,0
2022-09-15T04:15:52.149Z,0
2022-09-15T04:16:58.662Z,0
2022-09-15T04:18:05.161Z,0
2022-09-15T04:19:11.660Z,0
2022-09-15T04:20:18.180Z,0
2022-09-15T04:21:24.688Z,0
2022-09-15T04:22:31.221Z,0
2022-09-15T04:23:37.712Z,0
2022-09-15T04:24:44.218Z,0
2022-09-15T04:25:50.731Z,0
2022-09-15T04:26:57.243Z,0
2022-09-15T04:28:03.787Z,0
2022-09-15T04:29:10.281Z,0
2022-09-15T04:30:16.888Z,0
2022-09-15T04:31:23.543Z,0
2022-09-15T04:32:30.297Z,0
2022-09-15T04:33:37.037Z,0
2022-09-15T04:34:43.815Z,0
2022-09-15T04:35:50.550Z,0
2022-09-15T04:36:57.266Z,0
2022-09-15T04:38:04.037Z,0
2022-09-15T04:39:10.842Z,0
2022-09-15T04:40:17.507Z,0
2022-09-15T04:41:24.289Z,0
2022-09-15T04:42:31.005Z,0
2022-09-15T04:43:37.792Z,0
2022-09-15T04:44:44.530Z,0
2022-09-15T04:47:23.743Z,0
2022-09-15T04:49:02.474Z,0
2022-09-15T04:50:41.219Z,0
2022-09-15T04:52:19.952Z,0
2022-09-15T04:53:27.172Z,0
2022-09-15T04:54:34.408Z,5
2022-09-15T04:56:13.107Z,5
2022-09-15T04:57:51.824Z,5
2022-09-15T04:59:30.526Z,5
2022-09-15T05:01:09.231Z,5
2022-09-15T05:02:48.055Z,5
2022-09-15T05:04:26.659Z,5
2022-09-15T05:06:05.398Z,11
2022-09-15T05:09:55.181Z,11
2022-09-15T05:11:03.472Z,22
2022-09-15T05:14:20.865Z,22
2022-09-15T05:17:38.274Z,28
2022-09-15T05:20:55.683Z,33
2022-09-15T05:24:13.082Z,33
2022-09-15T05:27:30.503Z,45
2022-09-15T05:30:47.941Z,39
2022-09-15T05:34:05.476Z,56
2022-09-15T05:37:22.851Z,84
2022-09-15T05:40:40.310Z,90
2022-09-15T05:42:47.291Z,112
2022-09-15T05:43:55.884Z,123
2022-09-15T05:45:02.284Z,118
2022-09-15T05:46:08.715Z,118
2022-09-15T05:47:15.162Z,123
2022-09-15T05:48:21.582Z,118
2022-09-15T05:50:34.434Z,112
2022-09-15T05:51:40.866Z,118
2022-09-15T05:52:47.296Z,118
2022-09-15T05:53:53.726Z,129
2022-09-15T05:55:00.153Z,129
2022-09-15T05:56:06.587Z,129
2022-09-15T05:57:13.011Z,129
2022-09-15T05:58:19.438Z,135
2022-09-15T05:59:25.935Z,146
2022-09-15T06:00:32.334Z,151
2022-09-15T06:01:38.732Z,157
2022-09-15T06:02:45.148Z,180
2022-09-15T06:03:51.596Z,191
2022-09-15T06:04:58.034Z,168
2022-09-15T06:06:04.436Z,157
2022-09-15T06:07:10.861Z,151
2022-09-15T06:08:17.235Z,151
2022-09-15T06:09:23.634Z,151
2022-09-15T06:10:30.143Z,151
2022-09-15T06:11:36.773Z,157
2022-09-15T06:12:43.201Z,168
2022-09-15T06:13:49.731Z,191
2022-09-15T06:14:56.285Z,208
2022-09-15T06:16:02.868Z,225
2022-09-15T06:17:09.381Z,253
2022-09-15T06:18:15.943Z,264
2022-09-15T06:19:22.510Z,253
2022-09-15T06:20:29.045Z,247
2022-09-15T06:21:35.618Z,236
2022-09-15T06:22:42.139Z,236
2022-09-15T06:23:48.693Z,253
2022-09-15T06:25:20.825Z,270
2022-09-15T06:26:27.617Z,286
2022-09-15T06:27:34.402Z,286
2022-09-15T06:28:41.185Z,275
2022-09-15T06:29:47.988Z,292
2022-09-15T06:30:54.778Z,315
2022-09-15T06:32:01.564Z,315
2022-09-15T06:33:08.342Z,315
2022-09-15T06:34:15.160Z,303
2022-09-15T06:35:21.929Z,298
2022-09-15T06:36:28.800Z,270
2022-09-15T06:37:35.504Z,236
2022-09-15T06:38:42.289Z,213
2022-09-15T06:42:00.461Z,196
2022-09-15T06:43:39.130Z,191
2022-09-15T06:45:17.838Z,202
2022-09-15T06:46:25.099Z,213
2022-09-15T06:47:32.308Z,225
2022-09-15T06:49:11.055Z,236
2022-09-15T06:50:49.814Z,253
2022-09-15T06:52:28.595Z,236
2022-09-15T06:54:07.317Z,247
2022-09-15T06:55:46.155Z,258
2022-09-15T06:57:24.823Z,258
2022-09-15T06:59:03.593Z,275
2022-09-15T07:00:42.346Z,315
2022-09-15T07:02:53.083Z,365
2022-09-15T07:04:50.354Z,421
2022-09-15T07:08:07.810Z,455
2022-09-15T07:11:25.262Z,455
2022-09-15T07:14:42.706Z,438
2022-09-15T07:18:00.204Z,354
2022-09-15T07:21:17.590Z,421
2022-09-15T07:24:35.053Z,466
2022-09-15T07:27:52.488Z,523
2022-09-15T07:31:09.943Z,618
2022-09-15T07:34:27.401Z,568
2022-09-15T07:35:47.093Z,646
2022-09-15T07:37:44.849Z,663
2022-09-15T07:43:30.597Z,680
2022-09-15T07:46:48.096Z,725
2022-09-15T07:50:05.491Z,680
2022-09-15T07:53:22.939Z,776
2022-09-15T07:56:40.401Z,860
2022-09-15T07:59:57.789Z,900
2022-09-15T08:03:13.351Z,1068
2022-09-15T08:04:19.775Z,1141
2022-09-15T08:05:26.160Z,1051
2022-09-15T08:06:32.642Z,1035
2022-09-15T08:07:39.079Z,1141
2022-09-15T08:08:45.468Z,1119
2022-09-15T08:09:51.857Z,1130
2022-09-15T08:10:58.341Z,1108
2022-09-15T08:12:04.652Z,1085
2022-09-15T08:13:11.046Z,1102
2022-09-15T08:14:17.500Z,1220
2022-09-15T08:15:23.893Z,1209
2022-09-15T08:16:30.357Z,1091
2022-09-15T08:17:36.743Z,1023
2022-09-15T08:18:43.235Z,1006
2022-09-15T08:19:49.638Z,950
2022-09-15T08:20:56.006Z,860
2022-09-15T08:22:02.413Z,787
2022-09-15T08:23:08.846Z,714
2022-09-15T08:24:15.245Z,646
2022-09-15T08:25:21.661Z,658
2022-09-15T08:26:28.021Z,714
2022-09-15T08:27:34.379Z,703
2022-09-15T08:28:40.793Z,686
2022-09-15T08:29:47.235Z,691
2022-09-15T08:30:53.695Z,686
2022-09-15T08:32:00.216Z,748
2022-09-15T08:33:06.763Z,860
2022-09-15T08:34:13.310Z,995
2022-09-15T08:35:19.870Z,1006
2022-09-15T08:36:26.415Z,1006
2022-09-15T08:37:32.975Z,1046
2022-09-15T08:38:39.505Z,1035
2022-09-15T08:39:46.064Z,945
2022-09-15T08:40:52.597Z,900
2022-09-15T08:41:59.251Z,916
2022-09-15T08:43:05.636Z,1035
2022-09-15T08:44:12.142Z,1181
2022-09-15T08:45:44.496Z,1231
2022-09-15T08:46:51.264Z,1260
2022-09-15T08:47:58.049Z,1248
2022-09-15T08:49:04.841Z,1288
2022-09-15T08:50:11.636Z,1327
2022-09-15T08:51:18.297Z,1327
2022-09-15T08:52:25.136Z,1400
2022-09-15T08:53:31.912Z,1468
2022-09-15T08:54:38.588Z,1496
2022-09-15T08:55:45.376Z,1845
2022-09-15T08:56:52.177Z,1406
2022-09-15T08:57:58.913Z,1321
2022-09-15T08:59:05.640Z,1248
2022-09-15T09:02:23.816Z,1226
2022-09-15T09:04:02.485Z,1153
2022-09-15T09:05:41.252Z,1181
2022-09-15T09:06:48.517Z,1096
2022-09-15T09:07:55.659Z,950
2022-09-15T09:09:34.426Z,871
2022-09-15T09:11:13.174Z,877
2022-09-15T09:12:51.891Z,793
2022-09-15T09:14:30.546Z,911
2022-09-15T09:16:09.298Z,1141
2022-09-15T09:17:48.084Z,1170
2022-09-15T09:19:26.815Z,1293
2022-09-15T09:21:05.602Z,1276
2022-09-15T09:23:16.503Z,1220
2022-09-15T09:25:11.847Z,1096
2022-09-15T09:26:18.334Z,973
2022-09-15T09:27:24.858Z,1018
2022-09-15T09:28:31.358Z,905
2022-09-15T09:29:37.918Z,922
2022-09-15T09:30:44.510Z,967
2022-09-15T09:31:51.007Z,1057
2022-09-15T09:32:57.550Z,1085
2022-09-15T09:34:04.114Z,1130
2022-09-15T09:35:10.610Z,1153
2022-09-15T09:36:17.111Z,1327
2022-09-15T09:37:23.654Z,1653
2022-09-15T09:38:30.176Z,1597
2022-09-15T09:39:36.669Z,1406
2022-09-15T09:40:43.212Z,1378
2022-09-15T09:41:49.722Z,1524
2022-09-15T09:42:56.274Z,1569
2022-09-15T09:44:02.765Z,1698
2022-09-15T09:45:09.295Z,1800
2022-09-15T09:46:15.926Z,1833
2022-09-15T09:47:22.424Z,1816
2022-09-15T09:48:28.883Z,1856
2022-09-15T09:49:35.478Z,1811
2022-09-15T09:50:41.977Z,1676
2022-09-15T09:51:48.417Z,1411
2022-09-15T09:52:55.237Z,1170
2022-09-15T09:54:01.994Z,973
2022-09-15T09:55:08.746Z,883
2022-09-15T09:56:15.646Z,826
2022-09-15T09:57:22.446Z,691
2022-09-15T09:58:29.254Z,534
2022-09-15T09:59:36.022Z,433
2022-09-15T10:00:42.832Z,405
2022-09-15T10:01:49.679Z,360
2022-09-15T10:02:56.430Z,275
2022-09-15T10:04:03.071Z,264
2022-09-15T10:05:09.821Z,331
2022-09-15T10:06:16.680Z,433
2022-09-15T10:08:55.074Z,551
2022-09-15T10:10:33.853Z,933
2022-09-15T10:12:12.649Z,1276
2022-09-15T10:13:51.367Z,1473
2022-09-15T10:14:58.787Z,1260
2022-09-15T10:16:05.847Z,1288
2022-09-15T10:17:44.720Z,1333
2022-09-15T10:19:23.372Z,1383
2022-09-15T10:21:02.033Z,1378
2022-09-15T10:22:40.810Z,1389
2022-09-15T10:24:19.488Z,1327
2022-09-15T10:25:58.224Z,1361
2022-09-15T10:27:36.993Z,1243
2022-09-15T10:31:26.588Z,1260
2022-09-15T10:32:33.099Z,1271
2022-09-15T10:33:39.453Z,1226
2022-09-15T10:34:45.883Z,1209
2022-09-15T10:35:52.340Z,1231
2022-09-15T10:36:58.706Z,1260
2022-09-15T10:38:05.061Z,1310
2022-09-15T10:39:11.472Z,1355
2022-09-15T10:40:17.852Z,1400
2022-09-15T10:41:24.254Z,1423
2022-09-15T10:42:30.658Z,1473
2022-09-15T10:43:37.064Z,1535
2022-09-15T10:44:43.449Z,1535
2022-09-15T10:45:49.981Z,1558
2022-09-15T10:46:56.320Z,1833
2022-09-15T10:48:02.731Z,1580
2022-09-15T10:49:09.136Z,1563
2022-09-15T10:50:15.534Z,1563
2022-09-15T10:51:21.951Z,1563
2022-09-15T10:52:28.281Z,1569
2022-09-15T10:53:34.654Z,1698
2022-09-15T10:54:41.143Z,1501
2022-09-15T10:55:47.454Z,1451
2022-09-15T10:56:53.947Z,1383
2022-09-15T10:58:00.297Z,1361
2022-09-15T10:59:06.709Z,1355
2022-09-15T11:00:13.187Z,1378
2022-09-15T11:01:19.779Z,1417
2022-09-15T11:02:26.289Z,1473
2022-09-15T11:03:32.696Z,1507
2022-09-15T11:04:39.228Z,1485
2022-09-15T11:05:45.777Z,1400
2022-09-15T11:06:52.357Z,1260
2022-09-15T11:07:58.796Z,1203
2022-09-15T11:09:05.373Z,1355
2022-09-15T11:10:11.904Z,1248
2022-09-15T11:11:18.363Z,1378
2022-09-15T11:12:24.914Z,1468
2022-09-15T11:13:31.528Z,1440
2022-09-15T11:15:20.821Z,1372
2022-09-15T11:16:27.524Z,1344
2022-09-15T11:17:34.277Z,1434
2022-09-15T11:18:41.090Z,1462
2022-09-15T11:19:47.819Z,1563
2022-09-15T11:20:54.531Z,1715
2022-09-15T11:22:01.290Z,1681
2022-09-15T11:23:08.063Z,1636
2022-09-15T11:24:14.824Z,1462
2022-09-15T11:25:21.638Z,1215
2022-09-15T11:26:28.359Z,973
2022-09-15T11:27:35.165Z,793
2022-09-15T11:28:41.947Z,663
2022-09-15T11:32:00.133Z,573
2022-09-15T11:33:35.592Z,376
2022-09-15T11:34:42.931Z,331
2022-09-15T11:36:21.661Z,331
2022-09-15T11:38:00.379Z,298
2022-09-15T11:39:38.350Z,213
2022-09-15T11:40:44.728Z,185
2022-09-15T11:41:51.121Z,191
2022-09-15T11:42:57.458Z,230
2022-09-15T11:44:03.856Z,309
2022-09-15T11:45:10.236Z,410
2022-09-15T11:46:16.715Z,450
2022-09-15T11:47:23.041Z,450
2022-09-15T11:48:29.447Z,478
2022-09-15T11:49:35.921Z,511
2022-09-15T11:50:42.284Z,534
2022-09-15T11:51:48.714Z,506
2022-09-15T11:52:55.097Z,427
2022-09-15T11:54:01.556Z,376
2022-09-15T11:55:07.910Z,399
2022-09-15T11:56:14.314Z,466
2022-09-15T11:57:20.698Z,528
2022-09-15T11:58:27.107Z,596
2022-09-15T11:59:33.517Z,675
2022-09-15T12:00:39.904Z,748
2022-09-15T12:01:46.268Z,826
2022-09-15T12:02:52.647Z,905
2022-09-15T12:03:59.107Z,984
2022-09-15T12:05:05.470Z,1091
2022-09-15T12:06:12.004Z,1119
2022-09-15T12:07:18.460Z,1102
2022-09-15T12:08:24.929Z,1113
2022-09-15T12:09:31.466Z,1164
2022-09-15T12:10:38.116Z,1198
2022-09-15T12:11:44.644Z,1895
2022-09-15T12:12:51.144Z,1316
2022-09-15T12:13:57.574Z,1378
2022-09-15T12:15:04.060Z,1434
2022-09-15T12:16:10.580Z,1305
2022-09-15T12:17:17.199Z,1198
2022-09-15T12:18:23.631Z,1130
2022-09-15T12:19:30.165Z,1085
2022-09-15T12:20:36.705Z,1023
2022-09-15T12:22:25.997Z,967
2022-09-15T12:23:32.786Z,843
2022-09-15T12:24:39.587Z,810
2022-09-15T12:25:46.400Z,832
2022-09-15T12:26:53.196Z,843
2022-09-15T12:28:00.085Z,849
2022-09-15T12:29:06.812Z,843
2022-09-15T12:30:13.680Z,860
2022-09-15T12:31:20.419Z,911
2022-09-15T12:32:27.301Z,978
2022-09-15T12:33:34.123Z,1006
2022-09-15T12:34:40.872Z,1006
2022-09-15T12:35:47.593Z,1040
2022-09-15T12:39:05.812Z,1018
2022-09-15T12:40:44.471Z,1102
2022-09-15T12:41:51.681Z,1125
2022-09-15T12:42:58.926Z,1091
2022-09-15T12:44:37.674Z,1305
2022-09-15T12:46:16.457Z,1828
2022-09-15T12:47:55.190Z,2880
2022-09-15T12:49:33.848Z,2958
2022-09-15T12:51:12.577Z,1895
2022-09-15T12:52:51.310Z,2773
2022-09-15T12:54:30.095Z,1940
2022-09-15T12:56:08.840Z,1766
2022-09-15T12:57:47.509Z,1811
2022-09-15T12:59:27.331Z,3481
2022-09-15T13:02:43.242Z,1389
2022-09-15T13:03:49.998Z,1192
2022-09-15T13:04:56.822Z,1153
2022-09-15T13:06:03.502Z,1096
2022-09-15T13:07:10.267Z,1102
2022-09-15T13:08:16.956Z,1175
2022-09-15T13:09:23.716Z,1316
2022-09-15T13:10:30.479Z,1541
2022-09-15T13:11:37.340Z,1738
2022-09-15T13:12:44.087Z,3240
2022-09-15T13:13:50.863Z,3318
2022-09-15T13:14:57.551Z,3003
2022-09-15T13:16:04.355Z,2823
2022-09-15T13:17:11.075Z,1698
2022-09-15T13:18:17.838Z,1170
2022-09-15T13:19:24.556Z,2660
2022-09-15T13:20:31.387Z,1063
2022-09-15T13:21:38.111Z,1012
2022-09-15T13:22:44.895Z,933
2022-09-15T13:23:51.685Z,911
2022-09-15T13:24:58.452Z,911
2022-09-15T13:26:05.308Z,888
2022-09-15T13:27:12.068Z,832
2022-09-15T13:28:18.937Z,787
2022-09-15T13:29:25.672Z,736
2022-09-15T13:31:37.897Z,675
2022-09-15T13:32:45.265Z,523
2022-09-15T13:33:52.467Z,466
2022-09-15T13:35:31.214Z,410
2022-09-15T13:37:09.959Z,360
2022-09-15T13:38:48.690Z,348
2022-09-15T13:40:27.434Z,360
2022-09-15T13:42:06.264Z,360
2022-09-15T13:43:44.104Z,360
2022-09-15T13:44:50.557Z,343
2022-09-15T13:45:56.955Z,337
2022-09-15T13:47:03.437Z,343
2022-09-15T13:48:09.889Z,376
2022-09-15T13:49:16.293Z,427
2022-09-15T13:50:22.754Z,478
2022-09-15T13:51:29.239Z,506
2022-09-15T13:52:35.733Z,545
2022-09-15T13:53:42.176Z,585
2022-09-15T13:54:48.627Z,675
2022-09-15T13:55:55.133Z,793
2022-09-15T13:57:01.547Z,894
2022-09-15T13:58:07.893Z,900
2022-09-15T13:59:14.352Z,832
2022-09-15T14:00:20.823Z,753
2022-09-15T14:01:27.282Z,708
2022-09-15T14:02:33.761Z,669
2022-09-15T14:03:40.149Z,624
2022-09-15T14:04:46.592Z,579
2022-09-15T14:05:53.104Z,534
2022-09-15T14:06:59.539Z,483
2022-09-15T14:08:05.934Z,433
2022-09-15T14:09:12.378Z,388
2022-09-15T14:10:18.850Z,343
2022-09-15T14:11:25.382Z,292
2022-09-15T14:12:31.968Z,275
2022-09-15T14:13:38.479Z,264
2022-09-15T14:14:45.073Z,247
2022-09-15T14:15:51.601Z,225
2022-09-15T14:16:58.111Z,202
2022-09-15T14:18:04.603Z,196
2022-09-15T14:19:11.097Z,191
2022-09-15T14:20:17.596Z,185
2022-09-15T14:21:24.098Z,185
2022-09-15T14:22:30.670Z,174
2022-09-15T14:23:37.159Z,157
2022-09-15T14:24:43.650Z,135
2022-09-15T14:26:15.704Z,112
2022-09-15T14:27:22.548Z,112
2022-09-15T14:28:29.256Z,112
2022-09-15T14:29:36.057Z,118
2022-09-15T14:30:42.716Z,118
2022-09-15T14:31:49.426Z,129
2022-09-15T14:32:56.198Z,140
2022-09-15T14:34:03.010Z,157
2022-09-15T14:35:09.798Z,202
2022-09-15T14:36:16.447Z,286
2022-09-15T14:37:23.374Z,360
2022-09-15T14:38:30.137Z,399
2022-09-15T14:39:36.778Z,405
2022-09-15T14:42:55.050Z,405
2022-09-15T14:44:33.757Z,450
2022-09-15T14:46:12.520Z,478
2022-09-15T14:47:19.663Z,528
2022-09-15T14:48:26.943Z,585
2022-09-15T14:50:05.608Z,641
2022-09-15T14:51:44.277Z,691
2022-09-15T14:53:23.129Z,753
2022-09-15T14:55:01.925Z,781
2022-09-15T14:56:40.470Z,776
2022-09-15T14:58:19.222Z,781
2022-09-15T14:59:57.988Z,765
2022-09-15T15:01:36.713Z,748
2022-09-15T15:03:47.797Z,708
2022-09-15T15:05:44.862Z,624
2022-09-15T15:09:00.362Z,517
2022-09-15T15:10:06.909Z,438
2022-09-15T15:11:13.350Z,466
2022-09-15T15:12:19.832Z,511
2022-09-15T15:13:26.248Z,545
2022-09-15T15:14:32.571Z,556
2022-09-15T15:15:39.108Z,556
2022-09-15T15:16:45.621Z,540
2022-09-15T15:17:51.982Z,500
2022-09-15T15:18:58.331Z,461
2022-09-15T15:20:04.835Z,455
2022-09-15T15:21:11.311Z,511
2022-09-15T15:22:17.659Z,540
2022-09-15T15:23:24.130Z,506
2022-09-15T15:24:30.660Z,450
2022-09-15T15:25:36.962Z,416
2022-09-15T15:26:43.411Z,376
2022-09-15T15:27:49.836Z,320
2022-09-15T15:28:56.330Z,253
2022-09-15T15:30:02.643Z,225
2022-09-15T15:31:09.054Z,208
2022-09-15T15:32:15.398Z,208
2022-09-15T15:33:21.776Z,213
2022-09-15T15:34:28.159Z,191
2022-09-15T15:35:34.531Z,163
2022-09-15T15:36:41.081Z,146
2022-09-15T15:37:47.550Z,151
2022-09-15T15:38:54.118Z,168
2022-09-15T15:40:00.654Z,208
2022-09-15T15:41:07.178Z,247
2022-09-15T15:42:13.699Z,270
2022-09-15T15:43:20.356Z,270
2022-09-15T15:44:26.900Z,286
2022-09-15T15:45:33.387Z,315
2022-09-15T15:46:39.905Z,337
2022-09-15T15:47:46.257Z,348
2022-09-15T15:48:52.932Z,365
2022-09-15T15:49:59.383Z,399
2022-09-15T15:51:48.764Z,438
2022-09-15T15:52:55.525Z,466
2022-09-15T15:54:02.122Z,478
2022-09-15T15:55:08.866Z,478
2022-09-15T15:56:15.681Z,478
2022-09-15T15:57:22.410Z,472
2022-09-15T15:58:29.241Z,455
2022-09-15T15:59:35.915Z,433
2022-09-15T16:00:42.733Z,410
2022-09-15T16:01:49.463Z,393
2022-09-15T16:02:56.230Z,360
2022-09-15T16:04:02.962Z,348
2022-09-15T16:05:09.645Z,354
2022-09-15T16:08:27.834Z,348
2022-09-15T16:10:06.502Z,309
2022-09-15T16:11:13.735Z,286
2022-09-15T16:12:20.934Z,275
2022-09-15T16:13:59.636Z,286
2022-09-15T16:15:38.360Z,264
2022-09-15T16:17:17.053Z,253
2022-09-15T16:18:55.790Z,253
2022-09-15T16:20:34.478Z,253
2022-09-15T16:22:13.180Z,258
2022-09-15T16:23:51.878Z,253
2022-09-15T16:25:30.626Z,230
2022-09-15T16:27:09.380Z,230
2022-09-15T16:28:49.179Z,236
2022-09-15T16:32:04.814Z,230
2022-09-15T16:33:11.353Z,230
2022-09-15T16:34:17.876Z,230
2022-09-15T16:35:24.405Z,230
2022-09-15T16:36:30.933Z,230
2022-09-15T16:37:37.466Z,230
2022-09-15T16:38:43.983Z,225
2022-09-15T16:39:50.502Z,230
2022-09-15T16:40:57.051Z,230
2022-09-15T16:42:03.569Z,236
2022-09-15T16:43:10.159Z,219
2022-09-15T16:44:16.660Z,213
2022-09-15T16:45:23.208Z,202
2022-09-15T16:46:29.752Z,202
2022-09-15T16:47:36.306Z,213
2022-09-15T16:48:42.837Z,219
2022-09-15T16:49:49.385Z,208
2022-09-15T16:52:02.471Z,180
2022-09-15T16:53:09.012Z,174
2022-09-15T16:54:15.568Z,163
2022-09-15T16:55:22.122Z,157
2022-09-15T16:56:28.664Z,151
2022-09-15T16:57:35.215Z,146
2022-09-15T16:58:41.763Z,140
2022-09-15T16:59:48.479Z,140
2022-09-15T17:00:55.259Z,135
2022-09-15T17:02:02.062Z,123
2022-09-15T17:03:08.825Z,118
2022-09-15T17:04:15.614Z,118
2022-09-15T17:05:22.389Z,112
2022-09-15T17:06:29.248Z,101
2022-09-15T17:07:35.971Z,90
2022-09-15T17:08:42.735Z,84
2022-09-15T17:09:49.506Z,84
2022-09-15T17:10:56.216Z,73
2022-09-15T17:12:02.991Z,67
2022-09-15T17:13:09.761Z,61
2022-09-15T17:15:50.190Z,61
2022-09-15T17:17:28.943Z,56
2022-09-15T17:19:07.696Z,56
2022-09-15T17:20:46.454Z,50
2022-09-15T17:21:53.697Z,56
2022-09-15T17:23:00.936Z,56
2022-09-15T17:24:39.697Z,50
2022-09-15T17:26:18.431Z,45
2022-09-15T17:27:57.189Z,39
2022-09-15T17:29:35.878Z,39
2022-09-15T17:31:14.580Z,33
2022-09-15T17:32:53.287Z,33
2022-09-15T17:34:31.991Z,33
2022-09-15T17:38:21.733Z,33
2022-09-15T17:39:28.548Z,22
2022-09-15T17:40:35.297Z,22
2022-09-15T17:41:42.061Z,16
2022-09-15T17:42:48.833Z,16
2022-09-15T17:43:55.597Z,11
2022-09-15T17:45:02.366Z,11
2022-09-15T17:46:09.130Z,11
2022-09-15T17:47:15.907Z,11
2022-09-15T17:48:22.626Z,11
2022-09-15T17:49:29.320Z,5
2022-09-15T17:50:36.131Z,5
2022-09-15T17:51:42.962Z,5
2022-09-15T17:52:49.748Z,0
2022-09-15T17:53:56.554Z,0
2022-09-15T17:55:03.330Z,0
2022-09-15T17:56:10.121Z,0
2022-09-15T17:57:16.912Z,0
2022-09-15T17:58:23.683Z,0
2022-09-15T17:59:30.475Z,0
2022-09-15T18:00:37.262Z,0
2022-09-15T18:01:44.049Z,0
2022-09-15T18:02:50.840Z,0
2022-09-15T18:03:57.618Z,0
2022-09-15T18:05:04.415Z,0
2022-09-15T18:06:11.193Z,0
2022-09-15T18:08:23.443Z,0
2022-09-15T18:10:02.168Z,0
2022-09-15T18:11:14.711Z,0
2022-09-15T18:12:21.974Z,0
2022-09-15T18:14:00.697Z,0
2022-09-15T18:15:39.428Z,0
2022-09-15T18:17:18.161Z,0
2022-09-15T18:18:56.898Z,0
2022-09-15T18:20:35.615Z,0
2022-09-15T18:22:14.335Z,0
2022-09-15T18:23:53.068Z,0
2022-09-15T18:25:31.801Z,0
2022-09-15T18:27:10.520Z,0
2022-09-15T18:28:50.256Z,0
2022-09-15T18:32:05.811Z,0
2022-09-15T18:33:12.238Z,0
2022-09-15T18:34:18.668Z,0
2022-09-15T18:35:25.110Z,0
2022-09-15T18:36:31.529Z,0
2022-09-15T18:37:37.961Z,0
2022-09-15T18:38:44.392Z,0
2022-09-15T18:39:50.818Z,0
2022-09-15T18:40:57.244Z,0
2022-09-15T18:42:03.676Z,0
2022-09-15T18:43:10.107Z,0
2022-09-15T18:44:16.544Z,0
2022-09-15T18:45:22.951Z,0
2022-09-15T18:46:29.377Z,0
2022-09-15T18:47:35.805Z,0
2022-09-15T18:48:42.228Z,0